Terminal Aerodrome Forecast
Issued by NWS

Home | Current Version | Previous Version | Text Only | Print | Product List | Glossary On
Versions: 1 2 3 4 5 6 7 8 9 10 11 12 13 14
000
FTUS44 KLIX 300520
TAFHUM
TAF
KHUM 300520Z 3006/0106 13022G28KT P6SM BKN016 OVC023
     FM301200 16022G31KT P6SM -SHRA VCTS OVC010CB
     FM301700 17020G30KT 4SM -SHRA OVC015
     FM301900 18023G34KT 2SM TSRA BKN015CB=

USA.gov is the U.S. government's official web portal to all federal, state and local government web resources and services.